Time;durP1;ratioP1;P1;durP2;ratioP2;P2;SDS_P1;SDS_P2;PMS_P1;PMS_P2;Temp;Humidity;BMP_temperature;BMP_pressure;BME280_temperature;BME280_humidity;BME280_pressure;Samples;Min_cycle;Max_cycle;Signal;HPM_P1;HPM_P2
2022/04/09 00:01:57;;;;;;;13.25;9.43;;;;;;;;;;6146795;23;20070;-50
2022/04/09 00:04:22;;;;;;;20.45;9.85;;;;;;;;;;6143423;23;20408;-52
2022/04/09 00:06:47;;;;;;;14.02;9.35;;;;;;;;;;6148118;23;20080;-48
2022/04/09 00:09:13;;;;;;;16.00;10.20;;;;;;;;;;6146083;23;20074;-49
2022/04/09 00:11:38;;;;;;;13.40;8.85;;;;;;;;;;6147792;23;20018;-49
2022/04/09 00:14:04;;;;;;;19.90;9.65;;;;;;;;;;6145877;23;20010;-50
2022/04/09 00:16:29;;;;;;;15.18;9.05;;;;;;;;;;6146363;23;20036;-50
2022/04/09 00:18:54;;;;;;;10.80;7.65;;;;;;;;;;6146241;23;20061;-50
2022/04/09 00:21:20;;;;;;;12.52;8.32;;;;;;;;;;6146526;23;20009;-49
2022/04/09 00:23:45;;;;;;;11.95;8.00;;;;;;;;;;6146563;23;20024;-53
2022/04/09 00:26:10;;;;;;;13.82;7.80;;;;;;;;;;6146812;23;20109;-49
2022/04/09 00:28:35;;;;;;;11.23;7.43;;;;;;;;;;6143074;23;20013;-52
2022/04/09 00:31:01;;;;;;;13.00;7.88;;;;;;;;;;6147072;23;20294;-52
2022/04/09 00:33:26;;;;;;;11.95;7.40;;;;;;;;;;6144888;23;20376;-51
2022/04/09 00:35:51;;;;;;;10.15;6.93;;;;;;;;;;6146717;23;20087;-52
2022/04/09 00:38:16;;;;;;;10.52;6.78;;;;;;;;;;6146791;23;20023;-51
2022/04/09 00:40:42;;;;;;;13.25;6.45;;;;;;;;;;6146708;23;20029;-49
2022/04/09 00:43:07;;;;;;;9.98;6.90;;;;;;;;;;6145525;23;20771;-51
2022/04/09 00:45:32;;;;;;;9.98;6.55;;;;;;;;;;6144543;23;20049;-50
2022/04/09 00:47:58;;;;;;;11.88;7.05;;;;;;;;;;6147753;23;20017;-49
2022/04/09 00:50:23;;;;;;;11.90;6.13;;;;;;;;;;6145053;23;20024;-52
2022/04/09 00:52:50;;;;;;;8.65;5.78;;;;;;;;;;6148332;23;20033;-49
2022/04/09 00:56:12;;;;;;;9.60;6.68;;;;;;;;;;6145798;23;20025;-50
2022/04/09 00:58:13;;;;;;;11.25;7.53;;;;;;;;;;6145351;23;20034;-50
2022/04/09 01:00:39;;;;;;;14.85;7.65;;;;;;;;;;6147289;23;20014;-48
2022/04/09 01:03:04;;;;;;;12.93;7.15;;;;;;;;;;6147080;23;20030;-50
2022/04/09 01:05:29;;;;;;;13.80;8.13;;;;;;;;;;6146117;23;20655;-54
2022/04/09 01:07:55;;;;;;;15.27;7.88;;;;;;;;;;6147099;23;20024;-50
2022/04/09 01:10:20;;;;;;;9.95;7.22;;;;;;;;;;6142712;23;20932;-53
2022/04/09 01:12:45;;;;;;;8.07;6.22;;;;;;;;;;6169847;23;20025;-51
2022/04/09 01:15:11;;;;;;;10.57;6.93;;;;;;;;;;6146496;23;20076;-55
2022/04/09 01:17:36;;;;;;;8.32;5.82;;;;;;;;;;6144791;23;20017;-48
2022/04/09 01:20:21;;;;;;;7.15;4.82;;;;;;;;;;6147365;23;20022;-51
2022/04/09 01:22:47;;;;;;;7.88;5.55;;;;;;;;;;6149243;23;20041;-52
2022/04/09 01:25:12;;;;;;;8.32;5.70;;;;;;;;;;6146019;23;20021;-54
2022/04/09 01:27:37;;;;;;;9.63;5.80;;;;;;;;;;6149131;23;20017;-49
2022/04/09 01:30:03;;;;;;;7.85;4.68;;;;;;;;;;6146758;23;20014;-50
2022/04/09 01:32:28;;;;;;;6.10;4.65;;;;;;;;;;6147271;23;20021;-51
2022/04/09 01:34:54;;;;;;;8.30;4.82;;;;;;;;;;6149244;23;20037;-52
2022/04/09 01:37:19;;;;;;;7.15;4.78;;;;;;;;;;6142863;23;20013;-50
2022/04/09 01:39:44;;;;;;;6.85;4.85;;;;;;;;;;6147033;23;20352;-50
2022/04/09 01:42:10;;;;;;;7.85;3.78;;;;;;;;;;6148024;23;20085;-50
2022/04/09 01:44:39;;;;;;;6.43;4.32;;;;;;;;;;6148355;23;20021;-52
2022/04/09 01:47:04;;;;;;;9.77;4.32;;;;;;;;;;6148468;23;20045;-52
2022/04/09 01:49:29;;;;;;;5.15;4.07;;;;;;;;;;6170867;23;20045;-54
2022/04/09 01:51:54;;;;;;;7.57;4.57;;;;;;;;;;6149040;23;20014;-49
2022/04/09 01:54:20;;;;;;;8.32;4.60;;;;;;;;;;6147886;23;20278;-49
2022/04/09 01:56:45;;;;;;;8.63;4.47;;;;;;;;;;6148380;23;20035;-53
2022/04/09 01:59:10;;;;;;;5.90;3.50;;;;;;;;;;6148413;23;20010;-49
2022/04/09 02:01:35;;;;;;;8.20;4.25;;;;;;;;;;6147313;23;20017;-50
2022/04/09 02:04:01;;;;;;;8.57;3.38;;;;;;;;;;6142809;23;20441;-48
2022/04/09 02:06:28;;;;;;;7.78;3.67;;;;;;;;;;6147714;23;20082;-49
2022/04/09 02:08:53;;;;;;;6.15;3.70;;;;;;;;;;6148622;23;20037;-49
2022/04/09 02:11:19;;;;;;;4.53;3.45;;;;;;;;;;6146501;23;20037;-53
2022/04/09 02:13:44;;;;;;;7.43;3.53;;;;;;;;;;6146494;23;20009;-47
2022/04/09 02:16:09;;;;;;;6.47;3.95;;;;;;;;;;6147538;23;20033;-50
2022/04/09 02:18:34;;;;;;;7.63;3.70;;;;;;;;;;6146075;23;20029;-45
2022/04/09 02:20:59;;;;;;;7.75;3.65;;;;;;;;;;6148427;23;20041;-52
2022/04/09 02:23:25;;;;;;;5.20;3.55;;;;;;;;;;6147884;23;20021;-49
2022/04/09 02:25:50;;;;;;;7.38;3.63;;;;;;;;;;6147818;23;20356;-48
2022/04/09 02:28:15;;;;;;;11.27;4.72;;;;;;;;;;6147618;23;20014;-52
2022/04/09 02:30:41;;;;;;;6.05;3.00;;;;;;;;;;6147121;23;20100;-52
2022/04/09 02:33:06;;;;;;;4.63;3.15;;;;;;;;;;6147739;23;20028;-49
2022/04/09 02:35:31;;;;;;;8.43;2.80;;;;;;;;;;6147044;23;20021;-48
2022/04/09 02:37:57;;;;;;;5.47;2.90;;;;;;;;;;6148171;23;20010;-48
2022/04/09 02:40:22;;;;;;;3.90;2.90;;;;;;;;;;6146623;23;20589;-47
2022/04/09 02:42:48;;;;;;;6.38;3.42;;;;;;;;;;6147451;23;20333;-50
2022/04/09 02:45:13;;;;;;;9.82;3.35;;;;;;;;;;6147763;23;20009;-47
2022/04/09 02:47:39;;;;;;;7.40;3.17;;;;;;;;;;6145717;23;20037;-48
2022/04/09 02:50:06;;;;;;;4.38;2.78;;;;;;;;;;6148217;23;20010;-50
2022/04/09 02:52:38;;;;;;;4.80;3.35;;;;;;;;;;6146795;23;20025;-48
2022/04/09 02:55:05;;;;;;;8.02;3.95;;;;;;;;;;6148770;23;20021;-48
2022/04/09 02:57:30;;;;;;;5.53;3.10;;;;;;;;;;6139503;23;20020;-50
2022/04/09 02:59:56;;;;;;;6.63;3.53;;;;;;;;;;6148990;23;20037;-51
2022/04/09 03:02:21;;;;;;;5.10;3.47;;;;;;;;;;6146640;23;20036;-48
2022/04/09 03:04:46;;;;;;;7.35;3.17;;;;;;;;;;6146442;23;20014;-49
2022/04/09 03:07:12;;;;;;;5.05;2.70;;;;;;;;;;6147151;23;20024;-48
2022/04/09 03:09:37;;;;;;;6.07;3.17;;;;;;;;;;6147349;23;20020;-49
2022/04/09 03:12:04;;;;;;;8.48;3.45;;;;;;;;;;6147319;23;20041;-49
2022/04/09 03:14:29;;;;;;;6.55;3.35;;;;;;;;;;6147153;23;20021;-47
2022/04/09 03:16:54;;;;;;;10.80;3.45;;;;;;;;;;6148504;23;20025;-48
2022/04/09 03:19:20;;;;;;;6.00;2.80;;;;;;;;;;6144977;23;20013;-46
2022/04/09 03:21:45;;;;;;;10.35;4.30;;;;;;;;;;6147291;23;20029;-51
2022/04/09 03:24:10;;;;;;;4.40;2.95;;;;;;;;;;6145127;23;20525;-48
2022/04/09 03:26:36;;;;;;;3.67;2.50;;;;;;;;;;6147348;23;20013;-49
2022/04/09 03:29:01;;;;;;;5.15;2.50;;;;;;;;;;6147737;23;20009;-51
2022/04/09 03:31:27;;;;;;;2.70;2.17;;;;;;;;;;6145999;23;20104;-48
2022/04/09 03:33:53;;;;;;;3.05;2.00;;;;;;;;;;6148121;23;20040;-47
2022/04/09 03:36:18;;;;;;;5.03;2.15;;;;;;;;;;6167415;23;20037;-49
2022/04/09 03:38:43;;;;;;;8.63;2.55;;;;;;;;;;6148218;23;20017;-47
2022/04/09 03:41:09;;;;;;;4.35;2.08;;;;;;;;;;6145686;23;20020;-50
2022/04/09 03:43:34;;;;;;;3.65;2.03;;;;;;;;;;6146803;23;20071;-48
2022/04/09 03:45:59;;;;;;;6.70;2.58;;;;;;;;;;6145067;23;20049;-47
2022/04/09 03:48:25;;;;;;;6.22;2.55;;;;;;;;;;6146981;23;20013;-49
2022/04/09 03:50:50;;;;;;;5.13;2.53;;;;;;;;;;6145460;23;20020;-50
2022/04/09 03:53:19;;;;;;;5.85;2.30;;;;;;;;;;6147505;23;20020;-51
2022/04/09 03:55:45;;;;;;;4.18;3.03;;;;;;;;;;6145486;23;20067;-48
2022/04/09 03:58:10;;;;;;;8.48;2.03;;;;;;;;;;6147734;23;20013;-49
2022/04/09 04:00:36;;;;;;;4.07;2.60;;;;;;;;;;6142083;23;20013;-50
2022/04/09 04:03:01;;;;;;;4.80;2.00;;;;;;;;;;6148145;23;20025;-50
2022/04/09 04:05:26;;;;;;;4.75;2.17;;;;;;;;;;6143259;23;20121;-48
2022/04/09 04:07:52;;;;;;;3.33;1.70;;;;;;;;;;6148474;23;20021;-50
2022/04/09 04:10:18;;;;;;;3.20;1.65;;;;;;;;;;6143803;23;20017;-48
2022/04/09 04:12:44;;;;;;;3.45;2.03;;;;;;;;;;6147606;23;20020;-51
2022/04/09 04:15:09;;;;;;;8.80;2.42;;;;;;;;;;6145463;23;20021;-49
2022/04/09 04:17:39;;;;;;;3.90;2.13;;;;;;;;;;6147658;23;20010;-49
2022/04/09 04:20:05;;;;;;;7.78;2.55;;;;;;;;;;6145840;23;20021;-49
2022/04/09 04:22:30;;;;;;;7.20;2.55;;;;;;;;;;6148160;23;20017;-47
2022/04/09 04:24:55;;;;;;;5.28;2.38;;;;;;;;;;6146251;23;20009;-47
2022/04/09 04:27:21;;;;;;;4.18;2.45;;;;;;;;;;6147083;23;20024;-51
2022/04/09 04:29:46;;;;;;;5.13;2.40;;;;;;;;;;6145446;23;20048;-47
2022/04/09 04:32:11;;;;;;;5.57;3.10;;;;;;;;;;6148367;23;20626;-50
2022/04/09 04:34:36;;;;;;;3.40;2.00;;;;;;;;;;6144835;23;20006;-51
2022/04/09 04:37:02;;;;;;;6.38;2.75;;;;;;;;;;6147913;23;20013;-49
2022/04/09 04:39:27;;;;;;;3.97;2.13;;;;;;;;;;6145252;23;20660;-48
2022/04/09 04:41:52;;;;;;;6.97;3.08;;;;;;;;;;6146700;23;20033;-51
2022/04/09 04:44:18;;;;;;;4.82;2.88;;;;;;;;;;6144822;23;20029;-49
2022/04/09 04:46:43;;;;;;;3.58;2.35;;;;;;;;;;6148701;23;20020;-49
2022/04/09 04:49:08;;;;;;;3.88;2.33;;;;;;;;;;6146006;23;20021;-50
2022/04/09 04:51:33;;;;;;;10.35;2.55;;;;;;;;;;6147873;23;20017;-50
2022/04/09 04:54:01;;;;;;;4.90;2.50;;;;;;;;;;6145922;23;20017;-51
2022/04/09 04:56:26;;;;;;;4.80;2.50;;;;;;;;;;6147858;23;20018;-48
2022/04/09 04:58:52;;;;;;;4.97;2.33;;;;;;;;;;6148005;23;20033;-47
2022/04/09 05:01:17;;;;;;;6.05;2.35;;;;;;;;;;6148572;23;20779;-52
2022/04/09 05:03:42;;;;;;;3.15;2.05;;;;;;;;;;6148985;23;20088;-48
2022/04/09 05:06:07;;;;;;;4.47;2.35;;;;;;;;;;6150450;23;20009;-49
2022/04/09 05:08:33;;;;;;;3.55;1.77;;;;;;;;;;6146315;23;20057;-52
2022/04/09 05:10:58;;;;;;;6.32;2.50;;;;;;;;;;6148921;23;20018;-50
2022/04/09 05:13:23;;;;;;;4.30;1.75;;;;;;;;;;6146730;23;20153;-48
2022/04/09 05:15:49;;;;;;;8.48;2.03;;;;;;;;;;6149942;23;20029;-51
2022/04/09 05:18:14;;;;;;;9.73;2.30;;;;;;;;;;6147731;23;20010;-52
2022/04/09 05:20:39;;;;;;;6.78;2.05;;;;;;;;;;6149526;23;20065;-47
2022/04/09 05:23:04;;;;;;;3.47;2.05;;;;;;;;;;6148178;23;20117;-50
2022/04/09 05:25:31;;;;;;;3.28;2.30;;;;;;;;;;6148446;23;20013;-49
2022/04/09 05:28:01;;;;;;;4.07;2.03;;;;;;;;;;6146116;23;20077;-48
2022/04/09 05:30:26;;;;;;;7.30;2.67;;;;;;;;;;6148773;23;20009;-48
2022/04/09 05:32:51;;;;;;;1.83;1.63;;;;;;;;;;6147572;23;20594;-48
2022/04/09 05:35:17;;;;;;;4.38;2.08;;;;;;;;;;6147229;23;20013;-48
2022/04/09 05:37:44;;;;;;;4.00;1.70;;;;;;;;;;6146296;23;20013;-48
2022/04/09 05:40:10;;;;;;;2.95;1.67;;;;;;;;;;6149523;23;20027;-50
2022/04/09 05:42:35;;;;;;;7.07;1.95;;;;;;;;;;6146681;23;20037;-52
2022/04/09 05:45:01;;;;;;;3.35;1.35;;;;;;;;;;6149443;23;20073;-49
2022/04/09 05:47:27;;;;;;;3.88;2.30;;;;;;;;;;6147458;23;20080;-50
2022/04/09 05:49:52;;;;;;;4.05;1.92;;;;;;;;;;6149051;23;20025;-50
2022/04/09 05:52:17;;;;;;;6.80;2.08;;;;;;;;;;6146521;23;20014;-49
2022/04/09 05:54:43;;;;;;;6.45;2.28;;;;;;;;;;6149003;23;20013;-49
2022/04/09 05:57:08;;;;;;;6.75;3.17;;;;;;;;;;6147047;23;20031;-50
2022/04/09 05:59:33;;;;;;;5.47;1.83;;;;;;;;;;6149343;23;20025;-49
2022/04/09 06:01:59;;;;;;;4.43;1.80;;;;;;;;;;6146932;23;20006;-51
2022/04/09 06:04:24;;;;;;;7.50;2.28;;;;;;;;;;6149398;23;20087;-49
2022/04/09 06:06:49;;;;;;;3.92;2.25;;;;;;;;;;6147019;23;20072;-49
2022/04/09 06:09:15;;;;;;;5.43;1.73;;;;;;;;;;6146977;23;20041;-50
2022/04/09 06:11:41;;;;;;;7.22;2.08;;;;;;;;;;6145588;23;20014;-48
2022/04/09 06:14:07;;;;;;;4.75;2.72;;;;;;;;;;6147031;23;20037;-51
2022/04/09 06:16:35;;;;;;;4.38;1.73;;;;;;;;;;6146977;23;20407;-49
2022/04/09 06:19:00;;;;;;;4.07;2.03;;;;;;;;;;6145388;23;20477;-50
2022/04/09 06:21:29;;;;;;;4.80;2.05;;;;;;;;;;6146850;23;20013;-50
2022/04/09 06:23:54;;;;;;;4.25;2.42;;;;;;;;;;6146297;23;20026;-49
2022/04/09 06:26:19;;;;;;;4.25;2.10;;;;;;;;;;6148293;23;20019;-52
2022/04/09 06:28:44;;;;;;;2.45;1.80;;;;;;;;;;6147422;23;20009;-51
2022/04/09 06:31:10;;;;;;;11.98;2.55;;;;;;;;;;6148480;23;20096;-49
2022/04/09 06:33:35;;;;;;;3.55;2.08;;;;;;;;;;6146523;23;20013;-51
2022/04/09 06:36:00;;;;;;;7.05;2.25;;;;;;;;;;6146160;23;20016;-51
2022/04/09 06:38:27;;;;;;;6.03;1.63;;;;;;;;;;6145057;23;20032;-48
2022/04/09 06:40:52;;;;;;;5.85;1.60;;;;;;;;;;6149280;23;20021;-51
2022/04/09 06:43:17;;;;;;;6.00;1.98;;;;;;;;;;6146073;23;20028;-53
2022/04/09 06:45:43;;;;;;;2.72;1.48;;;;;;;;;;6149068;23;20057;-51
2022/04/09 06:48:08;;;;;;;6.78;3.47;;;;;;;;;;6146722;23;20013;-48
2022/04/09 06:50:33;;;;;;;13.27;2.55;;;;;;;;;;6148261;23;20029;-51
2022/04/09 06:52:59;;;;;;;8.13;1.85;;;;;;;;;;6147098;23;20104;-49
2022/04/09 06:55:24;;;;;;;7.45;1.92;;;;;;;;;;6147952;23;20014;-49
2022/04/09 06:57:49;;;;;;;5.07;1.80;;;;;;;;;;6147039;23;20443;-52
2022/04/09 07:00:15;;;;;;;7.63;2.80;;;;;;;;;;6147926;23;20013;-49
2022/04/09 07:02:40;;;;;;;2.95;1.50;;;;;;;;;;6140064;23;20025;-49
2022/04/09 07:05:06;;;;;;;7.00;2.10;;;;;;;;;;6138684;23;20002;-49
2022/04/09 07:07:31;;;;;;;6.47;2.10;;;;;;;;;;6139576;23;21541;-50
2022/04/09 07:10:04;;;;;;;3.22;1.75;;;;;;;;;;6140120;23;20028;-53
2022/04/09 07:12:30;;;;;;;6.30;1.73;;;;;;;;;;6139926;23;20734;-49
2022/04/09 07:14:56;;;;;;;10.43;2.33;;;;;;;;;;6139297;23;20525;-49
2022/04/09 07:17:21;;;;;;;10.30;2.00;;;;;;;;;;6142092;23;20018;-50
2022/04/09 07:19:46;;;;;;;3.20;1.70;;;;;;;;;;6146658;23;20017;-50
2022/04/09 07:22:12;;;;;;;6.55;2.25;;;;;;;;;;6147540;23;20024;-52
2022/04/09 07:24:37;;;;;;;6.78;2.88;;;;;;;;;;6146737;23;20028;-49
2022/04/09 07:27:03;;;;;;;5.97;2.28;;;;;;;;;;6147714;23;20033;-51
2022/04/09 07:29:28;;;;;;;8.68;3.05;;;;;;;;;;6145272;23;20064;-47
2022/04/09 07:31:53;;;;;;;4.57;1.77;;;;;;;;;;6148757;23;20072;-50
2022/04/09 07:34:18;;;;;;;5.57;1.50;;;;;;;;;;6145484;23;20013;-50
2022/04/09 07:36:43;;;;;;;4.05;2.20;;;;;;;;;;6148545;23;20025;-47
2022/04/09 07:39:09;;;;;;;2.40;1.25;;;;;;;;;;6144490;23;20013;-48
2022/04/09 07:41:34;;;;;;;9.15;3.03;;;;;;;;;;6148304;23;20009;-48
2022/04/09 07:43:59;;;;;;;4.18;1.70;;;;;;;;;;6145747;23;20021;-53
2022/04/09 07:46:25;;;;;;;6.15;1.63;;;;;;;;;;6146917;23;20014;-50
2022/04/09 07:48:50;;;;;;;4.50;2.00;;;;;;;;;;6149040;23;20029;-50
2022/04/09 07:51:15;;;;;;;6.78;1.42;;;;;;;;;;6145934;23;20227;-50
2022/04/09 07:53:40;;;;;;;6.85;2.17;;;;;;;;;;6146970;23;20048;-53
2022/04/09 07:56:06;;;;;;;3.63;1.55;;;;;;;;;;6146930;23;20517;-49
2022/04/09 07:58:31;;;;;;;9.75;2.30;;;;;;;;;;6103472;23;20294;-48
2022/04/09 08:00:57;;;;;;;3.65;1.30;;;;;;;;;;6109567;23;20021;-47
2022/04/09 08:03:22;;;;;;;10.85;2.92;;;;;;;;;;6112582;23;20033;-48
2022/04/09 08:05:47;;;;;;;6.40;1.98;;;;;;;;;;6117817;23;20065;-46
2022/04/09 08:08:12;;;;;;;5.70;1.58;;;;;;;;;;6118518;23;20033;-47
2022/04/09 08:10:39;;;;;;;12.23;2.42;;;;;;;;;;6116681;23;20014;-48
2022/04/09 08:13:04;;;;;;;4.65;1.48;;;;;;;;;;6143268;23;20014;-47
2022/04/09 08:15:30;;;;;;;4.90;1.65;;;;;;;;;;6115139;23;20074;-47
2022/04/09 08:17:56;;;;;;;7.88;1.48;;;;;;;;;;6117856;23;20020;-47
2022/04/09 08:20:22;;;;;;;6.18;1.58;;;;;;;;;;6117118;23;20014;-45
2022/04/09 08:22:47;;;;;;;18.40;2.85;;;;;;;;;;6117906;23;20084;-52
2022/04/09 08:25:13;;;;;;;9.05;2.10;;;;;;;;;;6117769;23;20014;-49
2022/04/09 08:27:38;;;;;;;10.63;2.35;;;;;;;;;;6115886;23;20010;-48
2022/04/09 08:30:06;;;;;;;2.47;1.48;;;;;;;;;;6113762;23;20021;-46
2022/04/09 08:32:31;;;;;;;10.95;2.22;;;;;;;;;;6114752;23;20032;-47
2022/04/09 08:34:56;;;;;;;9.98;1.98;;;;;;;;;;6120101;23;20065;-45
2022/04/09 08:37:22;;;;;;;8.43;2.28;;;;;;;;;;6115414;23;20028;-46
2022/04/09 08:39:48;;;;;;;2.75;1.75;;;;;;;;;;6114258;23;20073;-47
2022/04/09 08:42:14;;;;;;;11.98;2.47;;;;;;;;;;6116068;23;20248;-46
2022/04/09 08:44:39;;;;;;;12.65;2.38;;;;;;;;;;6116293;23;20033;-47
2022/04/09 08:47:04;;;;;;;12.02;1.75;;;;;;;;;;6115286;23;20014;-47
2022/04/09 08:49:33;;;;;;;6.07;2.25;;;;;;;;;;6115178;23;20777;-46
2022/04/09 08:51:58;;;;;;;13.23;2.33;;;;;;;;;;6115914;23;20645;-51
2022/04/09 08:54:24;;;;;;;7.60;1.80;;;;;;;;;;6115502;23;20508;-46
2022/04/09 08:56:50;;;;;;;9.65;1.90;;;;;;;;;;6115385;23;20013;-47
2022/04/09 08:59:15;;;;;;;8.90;1.50;;;;;;;;;;6129024;23;20089;-50
2022/04/09 09:01:41;;;;;;;7.10;1.70;;;;;;;;;;6141748;23;20010;-50
2022/04/09 09:04:06;;;;;;;3.28;1.67;;;;;;;;;;6145017;23;20904;-47
2022/04/09 09:06:38;;;;;;;19.08;2.60;;;;;;;;;;6140685;23;20021;-50
2022/04/09 09:09:05;;;;;;;4.85;1.98;;;;;;;;;;6144217;23;20027;-49
2022/04/09 09:11:43;;;;;;;2.97;1.40;;;;;;;;;;6142879;23;20017;-46
2022/04/09 09:14:08;;;;;;;7.10;2.30;;;;;;;;;;6142651;23;20802;-48
2022/04/09 09:16:33;;;;;;;13.60;2.35;;;;;;;;;;6141296;23;20057;-48
2022/04/09 09:19:02;;;;;;;4.63;1.70;;;;;;;;;;6143533;23;20317;-48
2022/04/09 09:21:27;;;;;;;6.50;2.40;;;;;;;;;;6140721;23;20024;-46
2022/04/09 09:24:11;;;;;;;5.55;2.00;;;;;;;;;;6143646;23;20017;-46
2022/04/09 09:26:38;;;;;;;12.43;1.80;;;;;;;;;;6139127;23;20018;-48
2022/04/09 09:29:04;;;;;;;8.63;1.42;;;;;;;;;;6143698;23;20006;-46
2022/04/09 09:31:42;;;;;;;5.40;1.85;;;;;;;;;;6139879;23;20049;-46
2022/04/09 09:34:11;;;;;;;9.70;1.92;;;;;;;;;;6143452;23;20026;-48
2022/04/09 09:36:40;;;;;;;5.67;2.03;;;;;;;;;;6139317;23;20033;-49
2022/04/09 09:39:06;;;;;;;6.20;1.85;;;;;;;;;;6142489;23;20311;-48
2022/04/09 09:41:32;;;;;;;4.55;1.58;;;;;;;;;;6141180;23;20548;-48
2022/04/09 09:44:06;;;;;;;6.78;1.80;;;;;;;;;;6143145;23;20021;-48
2022/04/09 09:46:31;;;;;;;6.90;1.75;;;;;;;;;;6140941;23;20384;-47
2022/04/09 09:48:57;;;;;;;6.50;1.70;;;;;;;;;;6140802;23;20583;-46
2022/04/09 09:51:23;;;;;;;5.45;0.90;;;;;;;;;;6142331;23;20045;-46
2022/04/09 09:53:48;;;;;;;4.32;1.30;;;;;;;;;;6137720;23;20016;-46
2022/04/09 09:56:14;;;;;;;2.88;1.40;;;;;;;;;;6140477;23;20037;-48
2022/04/09 09:58:40;;;;;;;3.63;1.43;;;;;;;;;;6088928;23;1214891;-47
2022/04/09 10:01:05;;;;;;;3.28;1.35;;;;;;;;;;6146446;23;20243;-47
2022/04/09 10:03:31;;;;;;;6.43;1.33;;;;;;;;;;6143992;23;20048;-49
2022/04/09 10:05:56;;;;;;;2.17;1.50;;;;;;;;;;6148843;23;20013;-48
2022/04/09 10:08:21;;;;;;;10.30;1.35;;;;;;;;;;6145702;23;20033;-48
2022/04/09 10:10:48;;;;;;;5.22;1.20;;;;;;;;;;6149091;23;20006;-46
2022/04/09 10:13:21;;;;;;;5.78;1.33;;;;;;;;;;6146359;23;20013;-46
2022/04/09 10:15:48;;;;;;;5.80;1.40;;;;;;;;;;6142630;23;20515;-50
2022/04/09 10:18:13;;;;;;;5.05;1.08;;;;;;;;;;6142131;23;20017;-49
2022/04/09 10:20:39;;;;;;;2.83;1.42;;;;;;;;;;6144821;23;20006;-48
2022/04/09 10:23:06;;;;;;;5.93;1.48;;;;;;;;;;6142642;23;20101;-46
2022/04/09 10:25:32;;;;;;;5.63;1.20;;;;;;;;;;6144918;23;20013;-47
2022/04/09 10:28:01;;;;;;;4.18;2.88;;;;;;;;;;6142028;23;20068;-45
2022/04/09 10:30:28;;;;;;;8.38;2.35;;;;;;;;;;6143505;23;20052;-46
2022/04/09 10:32:56;;;;;;;2.95;1.33;;;;;;;;;;6143110;23;20018;-46
2022/04/09 10:35:40;;;;;;;2.00;0.98;;;;;;;;;;6144153;23;20066;-47
2022/04/09 10:38:09;;;;;;;10.45;1.48;;;;;;;;;;6163723;23;20073;-46
2022/04/09 10:40:36;;;;;;;11.13;1.58;;;;;;;;;;6144273;23;20018;-45
2022/04/09 10:43:02;;;;;;;8.20;1.88;;;;;;;;;;6142800;23;20025;-48
2022/04/09 10:45:30;;;;;;;6.68;1.42;;;;;;;;;;6144690;23;20092;-46
2022/04/09 10:48:14;;;;;;;3.80;1.60;;;;;;;;;;6140935;23;20009;-48
2022/04/09 10:50:58;;;;;;;2.05;1.30;;;;;;;;;;6140114;23;20033;-47
2022/04/09 10:53:27;;;;;;;4.40;1.10;;;;;;;;;;6142317;23;20025;-45
2022/04/09 10:56:53;;;;;;;5.72;1.10;;;;;;;;;;6142985;23;20013;-46
2022/04/09 10:59:08;;;;;;;3.50;1.42;;;;;;;;;;6133828;23;20021;-49
2022/04/09 11:01:48;;;;;;;4.15;1.42;;;;;;;;;;6147853;23;20016;-46
2022/04/09 11:04:29;;;;;;;3.58;1.02;;;;;;;;;;6144856;23;20021;-48
2022/04/09 11:07:05;;;;;;;5.20;2.22;;;;;;;;;;6147247;23;20013;-46
2022/04/09 11:09:51;;;;;;;4.28;1.20;;;;;;;;;;6147450;23;20045;-46
2022/04/09 11:12:19;;;;;;;10.85;1.40;;;;;;;;;;6145338;23;20013;-50
2022/04/09 11:14:51;;;;;;;3.95;1.48;;;;;;;;;;6147864;23;20018;-48
2022/04/09 11:17:18;;;;;;;2.83;1.30;;;;;;;;;;6148062;23;20014;-49
2022/04/09 11:19:43;;;;;;;6.18;1.85;;;;;;;;;;6144985;23;20017;-47
2022/04/09 11:22:09;;;;;;;2.78;1.52;;;;;;;;;;6148526;23;20445;-47
2022/04/09 11:24:37;;;;;;;9.38;1.40;;;;;;;;;;6145192;23;20025;-47
2022/04/09 11:27:03;;;;;;;11.50;1.23;;;;;;;;;;6148358;23;20112;-48
2022/04/09 11:29:35;;;;;;;2.70;1.33;;;;;;;;;;6145727;23;20443;-49
2022/04/09 11:32:00;;;;;;;2.03;0.77;;;;;;;;;;6148436;23;20009;-50
2022/04/09 11:34:26;;;;;;;2.72;0.90;;;;;;;;;;6144309;23;20388;-48
2022/04/09 11:36:52;;;;;;;7.15;1.55;;;;;;;;;;6171531;23;20061;-49
2022/04/09 11:39:18;;;;;;;4.97;1.80;;;;;;;;;;6144976;23;20386;-53
2022/04/09 11:41:47;;;;;;;6.03;1.13;;;;;;;;;;6148591;23;20502;-50
2022/04/09 11:44:25;;;;;;;3.28;0.95;;;;;;;;;;6145085;23;20249;-47
2022/04/09 11:46:51;;;;;;;9.80;1.35;;;;;;;;;;6147319;23;20006;-46
2022/04/09 11:49:18;;;;;;;3.20;1.25;;;;;;;;;;6144894;23;20048;-49
2022/04/09 11:51:52;;;;;;;3.40;1.02;;;;;;;;;;6148826;23;20014;-48
2022/04/09 11:54:17;;;;;;;2.75;1.17;;;;;;;;;;6143512;23;20005;-45
2022/04/09 11:56:43;;;;;;;5.40;1.17;;;;;;;;;;6147010;23;20360;-45
2022/04/09 11:59:12;;;;;;;10.52;2.00;;;;;;;;;;6145001;23;20084;-46
2022/04/09 12:01:38;;;;;;;5.60;1.83;;;;;;;;;;6148061;23;20017;-46
2022/04/09 12:04:03;;;;;;;3.88;2.03;;;;;;;;;;6144734;23;20159;-47
2022/04/09 12:06:28;;;;;;;6.32;1.33;;;;;;;;;;6147715;23;20359;-47
2022/04/09 12:08:54;;;;;;;3.38;2.00;;;;;;;;;;6146719;23;20019;-47
2022/04/09 12:11:20;;;;;;;4.68;1.27;;;;;;;;;;6147455;23;20021;-49
2022/04/09 12:13:46;;;;;;;5.40;0.93;;;;;;;;;;6144314;23;20055;-46
2022/04/09 12:16:19;;;;;;;5.32;1.13;;;;;;;;;;6145566;23;20081;-49
2022/04/09 12:18:44;;;;;;;9.65;1.50;;;;;;;;;;6145171;23;20013;-49
2022/04/09 12:21:37;;;;;;;7.47;1.48;;;;;;;;;;6145211;23;20013;-46
2022/04/09 12:24:09;;;;;;;4.30;0.90;;;;;;;;;;6142131;23;20372;-49
2022/04/09 12:26:35;;;;;;;3.42;1.42;;;;;;;;;;6144402;23;20109;-46
2022/04/09 12:29:13;;;;;;;3.95;0.88;;;;;;;;;;6148436;23;20014;-47
2022/04/09 12:31:42;;;;;;;0.82;0.70;;;;;;;;;;6142642;23;20016;-46
2022/04/09 12:34:08;;;;;;;4.00;1.77;;;;;;;;;;6147336;23;20020;-49
2022/04/09 12:36:33;;;;;;;3.35;1.73;;;;;;;;;;6144364;23;20535;-48
2022/04/09 12:39:00;;;;;;;2.72;0.80;;;;;;;;;;6147114;23;20029;-46
2022/04/09 12:41:26;;;;;;;2.78;0.75;;;;;;;;;;6143723;23;20018;-49
2022/04/09 12:43:52;;;;;;;3.30;1.15;;;;;;;;;;6147925;23;20045;-51
2022/04/09 12:46:18;;;;;;;5.28;1.35;;;;;;;;;;6143700;23;20082;-47
2022/04/09 12:48:50;;;;;;;2.03;0.88;;;;;;;;;;6147958;23;20013;-46
2022/04/09 12:51:18;;;;;;;2.63;1.20;;;;;;;;;;6144142;23;20332;-49
2022/04/09 12:53:44;;;;;;;2.10;1.10;;;;;;;;;;6139524;23;20021;-49
2022/04/09 12:56:11;;;;;;;2.08;1.23;;;;;;;;;;6140368;23;20021;-45
2022/04/09 12:58:36;;;;;;;12.68;2.05;;;;;;;;;;6143290;23;20032;-48
2022/04/09 13:01:02;;;;;;;1.35;1.20;;;;;;;;;;6142282;23;20010;-47
2022/04/09 13:03:27;;;;;;;4.75;1.80;;;;;;;;;;6142701;23;20037;-46
2022/04/09 13:05:52;;;;;;;4.22;1.10;;;;;;;;;;6141796;23;20081;-46
2022/04/09 13:08:18;;;;;;;4.63;1.13;;;;;;;;;;6142420;23;20044;-46
2022/04/09 13:10:43;;;;;;;4.60;1.23;;;;;;;;;;6140200;23;20025;-46
2022/04/09 13:13:08;;;;;;;4.30;1.17;;;;;;;;;;6144190;23;20018;-50
2022/04/09 13:15:34;;;;;;;3.55;1.13;;;;;;;;;;6140404;23;20037;-45
2022/04/09 13:17:59;;;;;;;2.40;0.82;;;;;;;;;;6144465;23;20036;-45
2022/04/09 13:20:24;;;;;;;1.33;0.68;;;;;;;;;;6143496;23;20017;-46
2022/04/09 13:22:50;;;;;;;4.25;0.95;;;;;;;;;;6143544;23;20013;-47
2022/04/09 13:25:18;;;;;;;3.13;0.73;;;;;;;;;;6142798;23;20049;-45
2022/04/09 13:27:44;;;;;;;1.02;0.70;;;;;;;;;;6169845;23;20732;-46
2022/04/09 13:30:12;;;;;;;1.48;0.90;;;;;;;;;;6142903;23;20032;-48
2022/04/09 13:32:38;;;;;;;2.75;1.55;;;;;;;;;;6145755;23;20017;-46
2022/04/09 13:35:03;;;;;;;2.17;1.30;;;;;;;;;;6142170;23;20009;-46
2022/04/09 13:37:29;;;;;;;2.65;1.00;;;;;;;;;;6147527;23;20009;-46
2022/04/09 13:39:54;;;;;;;8.27;1.23;;;;;;;;;;6147028;23;20362;-45
2022/04/09 13:42:20;;;;;;;2.20;0.80;;;;;;;;;;6148416;23;20024;-46
2022/04/09 13:44:45;;;;;;;2.83;0.60;;;;;;;;;;6144495;23;20073;-46
2022/04/09 13:47:11;;;;;;;2.85;0.90;;;;;;;;;;6149328;23;20061;-46
2022/04/09 13:49:37;;;;;;;3.10;0.70;;;;;;;;;;6146771;23;20557;-46
2022/04/09 13:52:03;;;;;;;2.60;1.67;;;;;;;;;;6149124;23;20013;-46
2022/04/09 13:54:28;;;;;;;2.33;0.70;;;;;;;;;;6145754;23;20350;-46
2022/04/09 13:56:54;;;;;;;5.38;0.90;;;;;;;;;;6148975;23;20010;-46
2022/04/09 13:59:19;;;;;;;1.98;0.73;;;;;;;;;;6145518;23;20036;-47
2022/04/09 14:01:44;;;;;;;0.95;0.63;;;;;;;;;;6148704;23;20005;-50
2022/04/09 14:04:10;;;;;;;1.95;0.75;;;;;;;;;;6148499;23;20025;-47
2022/04/09 14:06:35;;;;;;;2.28;0.80;;;;;;;;;;6145720;23;20016;-49
2022/04/09 14:09:00;;;;;;;1.05;0.60;;;;;;;;;;6170850;23;20032;-46
2022/04/09 14:11:26;;;;;;;2.08;0.82;;;;;;;;;;6147422;23;20048;-47
2022/04/09 14:13:51;;;;;;;6.50;1.23;;;;;;;;;;6146628;23;20216;-47
2022/04/09 14:16:16;;;;;;;3.35;0.85;;;;;;;;;;6147253;23;20017;-48
2022/04/09 14:18:42;;;;;;;4.70;0.80;;;;;;;;;;6145925;23;20010;-46
2022/04/09 14:21:07;;;;;;;2.85;0.70;;;;;;;;;;6147585;23;20077;-46
2022/04/09 14:23:33;;;;;;;2.15;1.25;;;;;;;;;;6145366;23;20017;-48
2022/04/09 14:25:58;;;;;;;3.58;0.95;;;;;;;;;;6147867;23;20017;-46
2022/04/09 14:28:26;;;;;;;2.65;1.00;;;;;;;;;;6144369;23;20037;-47
2022/04/09 14:30:52;;;;;;;2.35;1.08;;;;;;;;;;6147311;23;20020;-49
2022/04/09 14:33:20;;;;;;;2.08;0.95;;;;;;;;;;6148048;23;20047;-47
2022/04/09 14:35:45;;;;;;;1.75;0.73;;;;;;;;;;6147413;23;20014;-49
2022/04/09 14:38:10;;;;;;;5.18;1.10;;;;;;;;;;6141695;23;20017;-46